createdAt,value
2018-11-06T00:00:44.113Z,26.87
2018-11-06T00:03:19.638Z,25.93
2018-11-06T00:05:49.991Z,25.40
2018-11-06T00:08:18.261Z,25.07
2018-11-06T00:10:46.461Z,24.87
2018-11-06T00:13:14.797Z,25.30
2018-11-06T00:15:43.578Z,24.67
2018-11-06T00:18:11.813Z,26.93
2018-11-06T00:20:40.274Z,26.33
2018-11-06T00:23:08.453Z,24.67
2018-11-06T00:25:36.640Z,27.63
2018-11-06T00:28:05.319Z,22.73
2018-11-06T00:30:33.670Z,24.30
2018-11-06T00:33:01.873Z,27.10
2018-11-06T00:35:30.077Z,25.67
2018-11-06T00:38:02.629Z,25.63
2018-11-06T00:40:39.297Z,26.83
2018-11-06T00:43:07.509Z,25.00
2018-11-06T00:45:35.785Z,25.80
2018-11-06T00:48:04.376Z,23.73
2018-11-06T00:50:32.606Z,25.90
2018-11-06T00:53:00.921Z,24.33
2018-11-06T00:55:29.349Z,27.63
2018-11-06T00:57:57.548Z,25.47
2018-11-06T01:00:26.572Z,25.67
2018-11-06T01:02:54.984Z,25.70
2018-11-06T01:05:23.253Z,25.23
2018-11-06T01:07:51.465Z,25.70
2018-11-06T01:10:21.653Z,25.67
2018-11-06T01:12:50.025Z,26.93
2018-11-06T01:15:18.243Z,25.73
2018-11-06T01:17:48.464Z,25.93
2018-11-06T01:20:18.319Z,24.00
2018-11-06T01:22:46.627Z,24.40
2018-11-06T01:25:16.766Z,24.43
2018-11-06T01:27:46.977Z,21.80
2018-11-06T01:30:18.472Z,25.10
2018-11-06T01:32:47.179Z,25.30
2018-11-06T01:35:18.128Z,24.43
2018-11-06T01:37:46.935Z,21.77
2018-11-06T01:40:16.400Z,23.80
2018-11-06T01:42:45.132Z,25.20
2018-11-06T01:45:14.630Z,23.83
2018-11-06T01:47:43.165Z,25.07
2018-11-06T01:50:14.390Z,22.30
2018-11-06T01:52:45.918Z,20.57
2018-11-06T01:55:14.212Z,21.67
2018-11-06T01:57:42.403Z,22.40
2018-11-06T02:00:19.905Z,23.07
2018-11-06T02:02:48.456Z,23.43
2018-11-06T02:05:17.698Z,24.97
2018-11-06T02:07:47.393Z,24.53
2018-11-06T02:10:18.276Z,22.23
2018-11-06T02:12:47.338Z,24.37
2018-11-06T02:15:15.561Z,25.27
2018-11-06T02:17:44.527Z,22.50
2018-11-06T02:20:13.847Z,23.90
2018-11-06T02:22:43.313Z,23.23
2018-11-06T02:25:12.182Z,23.77
2018-11-06T02:27:40.481Z,24.43
2018-11-06T02:30:11.681Z,24.93
2018-11-06T02:32:40.296Z,24.23
2018-11-06T02:35:08.617Z,24.23
2018-11-06T02:37:37.298Z,23.37
2018-11-06T02:40:06.605Z,24.13
2018-11-06T02:42:34.926Z,25.40
2018-11-06T02:45:03.623Z,23.73
2018-11-06T02:47:32.009Z,24.13
2018-11-06T02:50:00.304Z,23.80
2018-11-06T02:52:31.451Z,22.70
2018-11-06T02:54:59.798Z,23.30
2018-11-06T02:57:28.089Z,25.57
2018-11-06T02:59:56.562Z,22.60
2018-11-06T03:02:25.095Z,22.90
2018-11-06T03:04:53.377Z,22.27
2018-11-06T03:07:24.818Z,23.77
2018-11-06T03:09:53.068Z,22.83
2018-11-06T03:12:21.284Z,24.37
2018-11-06T03:14:49.487Z,24.00
2018-11-06T03:17:18.518Z,23.30
2018-11-06T03:19:46.822Z,24.13
2018-11-06T03:22:15.039Z,24.10
2018-11-06T03:24:43.262Z,21.63
2018-11-06T03:27:11.534Z,21.13
2018-11-06T03:29:39.673Z,23.13
2018-11-06T03:32:07.896Z,22.37
2018-11-06T03:34:36.081Z,20.67
2018-11-06T03:37:04.968Z,21.37
2018-11-06T03:39:33.172Z,21.60
2018-11-06T03:42:01.406Z,23.67
2018-11-06T03:44:29.604Z,24.53
2018-11-06T03:46:58.030Z,28.50
2018-11-06T03:49:26.321Z,29.57
2018-11-06T03:51:54.535Z,31.27
2018-11-06T03:54:22.926Z,31.47
2018-11-06T03:56:51.115Z,31.10
2018-11-06T03:59:19.629Z,29.43
2018-11-06T04:01:47.812Z,31.30
2018-11-06T04:04:17.146Z,29.03
2018-11-06T04:06:45.393Z,32.10
2018-11-06T04:09:13.697Z,29.07
2018-11-06T04:11:42.836Z,29.47
2018-11-06T04:14:11.484Z,32.77
2018-11-06T04:16:40.104Z,33.20
2018-11-06T04:19:10.579Z,31.53
2018-11-06T04:21:39.889Z,32.23
2018-11-06T04:24:09.474Z,35.00
2018-11-06T04:26:40.511Z,35.33
2018-11-06T04:29:09.716Z,31.73
2018-11-06T04:31:38.611Z,29.57
2018-11-06T04:34:10.103Z,29.73
2018-11-06T04:36:38.334Z,28.93
2018-11-06T04:39:09.868Z,33.90
2018-11-06T04:41:38.128Z,32.17
2018-11-06T04:44:07.033Z,28.03
2018-11-06T04:46:35.298Z,29.87
2018-11-06T04:49:03.821Z,32.10
2018-11-06T04:51:33.666Z,32.70
2018-11-06T04:54:02.432Z,32.33
2018-11-06T04:56:31.276Z,31.40
2018-11-06T04:58:59.610Z,31.13
2018-11-06T05:01:28.054Z,30.47
2018-11-06T05:03:56.343Z,31.97
2018-11-06T05:06:24.700Z,32.73
2018-11-06T05:08:53.125Z,31.10
2018-11-06T05:11:21.372Z,29.60
2018-11-06T05:13:51.573Z,32.03
2018-11-06T05:16:25.049Z,33.57
2018-11-06T05:18:53.692Z,30.23
2018-11-06T05:21:22.068Z,30.77
2018-11-06T05:23:50.337Z,30.30
2018-11-06T05:26:18.579Z,27.93
2018-11-06T05:28:46.874Z,28.03
2018-11-06T05:31:15.217Z,28.97
2018-11-06T05:33:43.466Z,28.90
2018-11-06T05:36:12.570Z,29.93
2018-11-06T05:38:41.870Z,30.03
2018-11-06T05:41:10.743Z,31.30
2018-11-06T05:43:39.397Z,31.53
2018-11-06T05:46:07.713Z,29.70
2018-11-06T05:48:36.209Z,28.60
2018-11-06T05:51:10.255Z,30.03
2018-11-06T05:53:38.444Z,29.20
2018-11-06T05:56:06.680Z,29.33
2018-11-06T05:58:34.910Z,28.47
2018-11-06T06:01:03.229Z,27.87
2018-11-06T06:03:32.970Z,29.10
2018-11-06T06:06:02.513Z,27.30
2018-11-06T06:08:34.192Z,28.67
2018-11-06T06:11:04.111Z,27.70
2018-11-06T06:13:36.993Z,28.17
2018-11-06T06:16:07.319Z,27.93
2018-11-06T06:18:35.529Z,28.50
2018-11-06T06:21:04.552Z,28.37
2018-11-06T06:23:35.831Z,28.47
2018-11-06T06:26:08.935Z,29.17
2018-11-06T06:28:37.242Z,28.40
2018-11-06T06:31:05.845Z,29.37
2018-11-06T06:33:34.193Z,26.40
2018-11-06T06:36:02.530Z,25.30
2018-11-06T06:38:32.015Z,25.20
2018-11-06T06:41:01.671Z,27.53
2018-11-06T06:43:29.861Z,29.97
2018-11-06T06:45:58.040Z,28.93
2018-11-06T06:48:33.373Z,31.07
2018-11-06T06:51:01.649Z,31.30
2018-11-06T06:53:29.913Z,32.70
2018-11-06T06:55:58.177Z,33.77
2018-11-06T06:58:30.645Z,33.10
2018-11-06T07:00:58.862Z,31.57
2018-11-06T07:03:28.617Z,31.47
2018-11-06T07:05:56.829Z,32.63
2018-11-06T07:08:26.943Z,31.67
2018-11-06T07:10:55.391Z,34.80
2018-11-06T07:13:25.983Z,33.07
2018-11-06T07:15:54.647Z,31.13
2018-11-06T07:18:23.003Z,33.13
2018-11-06T07:20:52.716Z,29.20
2018-11-06T07:23:21.401Z,30.70
2018-11-06T07:25:52.472Z,27.63
2018-11-06T07:28:26.346Z,29.37
2018-11-06T07:30:58.418Z,29.03
2018-11-06T07:33:28.686Z,27.90
2018-11-06T07:35:58.773Z,29.40
2018-11-06T07:38:27.164Z,28.17
2018-11-06T07:40:58.067Z,27.27
2018-11-06T07:43:29.622Z,29.30
2018-11-06T07:46:01.638Z,29.47
2018-11-06T07:48:29.833Z,28.70
2018-11-06T07:51:05.077Z,28.20
2018-11-06T07:53:39.061Z,29.00
2018-11-06T07:56:07.686Z,29.60
2018-11-06T07:58:36.680Z,30.93
2018-11-06T08:01:05.029Z,29.63
2018-11-06T08:03:33.268Z,29.30
2018-11-06T08:06:06.596Z,31.03
2018-11-06T08:08:34.782Z,28.47
2018-11-06T08:11:03.049Z,27.57
2018-11-06T08:13:31.346Z,28.73
2018-11-06T08:16:05.173Z,28.83
2018-11-06T08:18:35.248Z,28.63
2018-11-06T08:21:03.715Z,26.73
2018-11-06T08:23:32.577Z,25.60
2018-11-06T08:26:05.717Z,27.23
2018-11-06T08:28:33.968Z,25.40
2018-11-06T08:31:03.399Z,25.60
2018-11-06T08:33:38.555Z,22.97
2018-11-06T08:36:06.761Z,24.40
2018-11-06T08:38:34.975Z,23.60
2018-11-06T08:41:10.091Z,23.13
2018-11-06T08:43:38.290Z,22.80
2018-11-06T08:46:06.524Z,22.73
2018-11-06T08:48:34.771Z,22.43
2018-11-06T08:51:03.014Z,22.47
2018-11-06T08:53:31.233Z,21.97
2018-11-06T08:56:00.047Z,21.60
2018-11-06T08:58:28.242Z,21.43
2018-11-06T09:00:56.444Z,21.37
2018-11-06T09:03:31.737Z,22.20
2018-11-06T09:05:59.981Z,20.20
2018-11-06T09:08:28.392Z,20.03
2018-11-06T09:10:58.886Z,19.97
2018-11-06T09:13:27.507Z,19.10
2018-11-06T09:15:58.942Z,20.23
2018-11-06T09:18:27.173Z,19.80
2018-11-06T09:20:55.373Z,20.13
2018-11-06T09:23:23.614Z,19.87
2018-11-06T09:25:52.834Z,20.40
2018-11-06T09:28:21.066Z,18.63
2018-11-06T09:30:49.302Z,17.90
2018-11-06T09:33:20.671Z,17.37
2018-11-06T09:35:51.024Z,18.63
2018-11-06T09:38:19.404Z,16.90
2018-11-06T09:40:47.720Z,16.80
2018-11-06T09:43:16.140Z,17.27
2018-11-06T09:45:45.041Z,18.53
2018-11-06T09:48:13.370Z,15.67
2018-11-06T09:50:41.633Z,16.87
2018-11-06T09:53:14.428Z,16.00
2018-11-06T09:55:42.669Z,15.40
2018-11-06T09:58:11.245Z,17.70
2018-11-06T10:00:41.719Z,16.47
2018-11-06T10:03:09.943Z,16.40
2018-11-06T10:05:39.972Z,17.80
2018-11-06T10:08:08.284Z,18.63
2018-11-06T10:10:36.608Z,18.87
2018-11-06T10:13:05.636Z,19.33
2018-11-06T10:15:34.074Z,18.50
2018-11-06T10:18:06.445Z,18.97
2018-11-06T10:20:35.132Z,20.73
2018-11-06T10:23:05.437Z,19.53
2018-11-06T10:25:34.124Z,19.63
2018-11-06T10:28:02.549Z,18.83
2018-11-06T10:30:30.769Z,20.73
2018-11-06T10:32:58.976Z,19.57
2018-11-06T10:35:27.194Z,19.57
2018-11-06T10:37:55.453Z,20.20
2018-11-06T10:40:23.757Z,18.47
2018-11-06T10:42:52.000Z,18.73
2018-11-06T10:45:20.632Z,18.83
2018-11-06T10:47:49.148Z,16.53
2018-11-06T10:50:18.026Z,15.80
2018-11-06T10:52:49.145Z,15.47
2018-11-06T10:55:17.340Z,14.87
2018-11-06T10:57:45.531Z,14.80
2018-11-06T11:00:20.434Z,14.70
2018-11-06T11:02:54.118Z,13.70
2018-11-06T11:05:24.144Z,12.27
2018-11-06T11:07:52.668Z,12.27
2018-11-06T11:10:20.929Z,12.90
2018-11-06T11:12:49.214Z,11.83
2018-11-06T11:15:17.457Z,10.17
2018-11-06T11:17:48.116Z,10.33
2018-11-06T11:20:16.415Z,11.03
2018-11-06T11:22:44.630Z,10.47
2018-11-06T11:25:16.192Z,11.70
2018-11-06T11:27:45.179Z,11.47
2018-11-06T11:30:14.546Z,11.03
2018-11-06T11:33:01.198Z,10.87
2018-11-06T11:35:29.470Z,11.63
2018-11-06T11:37:57.672Z,11.37
2018-11-06T11:40:25.857Z,11.43
2018-11-06T11:42:56.463Z,11.40
2018-11-06T11:45:29.025Z,11.40
2018-11-06T11:47:57.236Z,12.00
2018-11-06T11:50:25.404Z,12.10
2018-11-06T11:52:58.116Z,11.97
2018-11-06T11:55:26.321Z,11.70
2018-11-06T11:57:57.599Z,12.23
2018-11-06T12:00:29.865Z,12.20
2018-11-06T12:02:58.234Z,11.77
2018-11-06T12:05:26.424Z,12.10
2018-11-06T12:07:56.333Z,11.77
2018-11-06T12:10:24.540Z,11.27
2018-11-06T12:12:53.070Z,10.77
2018-11-06T12:15:21.357Z,11.10
2018-11-06T12:17:49.595Z,11.20
2018-11-06T12:20:17.876Z,11.40
2018-11-06T12:22:48.047Z,11.43
2018-11-06T12:25:16.505Z,11.63
2018-11-06T12:27:44.596Z,10.53
2018-11-06T12:30:15.308Z,9.50
2018-11-06T12:32:43.597Z,9.80
2018-11-06T12:35:12.446Z,8.93
2018-11-06T12:37:41.008Z,8.30
2018-11-06T12:40:10.511Z,8.83
2018-11-06T12:42:39.297Z,8.77
2018-11-06T12:45:09.136Z,9.20
2018-11-06T12:47:37.414Z,7.97
2018-11-06T12:50:06.485Z,9.13
2018-11-06T12:52:34.714Z,9.90
2018-11-06T12:55:02.941Z,8.97
2018-11-06T12:57:31.981Z,9.20
2018-11-06T13:00:00.190Z,9.90
2018-11-06T13:02:28.368Z,9.47
2018-11-06T13:04:59.840Z,9.30
2018-11-06T13:07:28.519Z,10.53
2018-11-06T13:09:57.052Z,9.27
2018-11-06T13:12:25.204Z,9.90
2018-11-06T13:14:55.182Z,9.00
2018-11-06T13:17:24.043Z,9.30
2018-11-06T13:19:53.861Z,10.37
2018-11-06T13:22:25.991Z,9.87
2018-11-06T13:24:54.977Z,10.23
2018-11-06T13:27:23.157Z,9.67
2018-11-06T13:29:51.433Z,10.37
2018-11-06T13:32:19.696Z,9.33
2018-11-06T13:34:47.868Z,9.63
2018-11-06T13:37:17.725Z,9.63
2018-11-06T13:39:47.257Z,9.53
2018-11-06T13:42:15.540Z,9.50
2018-11-06T13:44:43.965Z,9.03
2018-11-06T13:47:11.956Z,9.17
2018-11-06T13:49:42.080Z,9.27
2018-11-06T13:52:10.296Z,9.97
2018-11-06T13:54:39.823Z,9.33
2018-11-06T13:57:08.576Z,9.27
2018-11-06T13:59:36.744Z,9.40
2018-11-06T14:02:05.289Z,8.77
2018-11-06T14:04:33.487Z,9.20
2018-11-06T14:07:01.683Z,9.07
2018-11-06T14:09:29.858Z,8.80
2018-11-06T14:11:58.070Z,9.27
2018-11-06T14:14:26.268Z,8.57
2018-11-06T14:16:55.958Z,9.27
2018-11-06T14:19:24.816Z,10.50
2018-11-06T14:21:56.321Z,10.03
2018-11-06T14:24:27.736Z,9.90
2018-11-06T14:26:57.164Z,9.40
2018-11-06T14:29:25.341Z,10.47
2018-11-06T14:31:53.593Z,10.20
2018-11-06T14:34:22.429Z,9.50
2018-11-06T14:36:51.030Z,10.10
2018-11-06T14:39:19.253Z,9.83
2018-11-06T14:41:47.429Z,10.43
2018-11-06T14:44:16.714Z,10.17
2018-11-06T14:46:44.952Z,13.03
2018-11-06T14:49:13.241Z,10.57
2018-11-06T14:51:41.341Z,11.00
2018-11-06T14:54:10.616Z,10.80
2018-11-06T14:56:39.760Z,10.70
2018-11-06T14:59:07.970Z,10.87
2018-11-06T15:01:36.160Z,11.17
2018-11-06T15:04:05.596Z,12.47
2018-11-06T15:06:33.819Z,11.73
2018-11-06T15:09:02.096Z,15.03
2018-11-06T15:11:30.321Z,13.27
2018-11-06T15:14:00.594Z,13.17
2018-11-06T15:16:28.829Z,12.20
2018-11-06T15:18:57.022Z,12.20
2018-11-06T15:21:25.229Z,12.50
2018-11-06T15:23:53.464Z,12.70
2018-11-06T15:26:21.644Z,12.03
2018-11-06T15:28:49.861Z,12.10
2018-11-06T15:31:18.693Z,11.70
2018-11-06T15:33:47.153Z,12.27
2018-11-06T15:36:15.381Z,11.73
2018-11-06T15:38:43.971Z,12.43
2018-11-06T15:41:18.319Z,11.33
2018-11-06T15:43:49.401Z,12.17
2018-11-06T15:46:17.689Z,12.60
2018-11-06T15:48:45.996Z,12.73
2018-11-06T15:51:16.165Z,12.50
2018-11-06T15:53:44.370Z,12.23
2018-11-06T15:56:12.589Z,13.87
2018-11-06T15:58:41.435Z,13.80
2018-11-06T16:01:14.312Z,14.37
2018-11-06T16:03:43.372Z,12.93
2018-11-06T16:06:17.752Z,13.57
2018-11-06T16:08:49.790Z,14.80
2018-11-06T16:11:20.268Z,15.97
2018-11-06T16:13:49.731Z,16.60
2018-11-06T16:16:20.143Z,14.93
2018-11-06T16:18:48.377Z,14.33
2018-11-06T16:21:16.594Z,15.20
2018-11-06T16:23:45.010Z,16.43
2018-11-06T16:26:13.205Z,16.93
2018-11-06T16:28:43.164Z,15.07
2018-11-06T16:31:15.679Z,15.10
2018-11-06T16:33:46.825Z,14.07
2018-11-06T16:36:18.237Z,13.13
2018-11-06T16:38:46.425Z,15.40
2018-11-06T16:41:16.131Z,12.60
2018-11-06T16:43:50.168Z,15.27
2018-11-06T16:46:21.455Z,15.37
2018-11-06T16:48:49.905Z,17.55
2018-11-06T16:51:18.204Z,14.93
2018-11-06T16:53:46.393Z,15.88
2018-11-06T16:56:14.666Z,14.50
2018-11-06T16:58:42.865Z,13.93
2018-11-06T17:01:15.897Z,17.47
2018-11-06T17:03:43.918Z,15.00
2018-11-06T17:06:20.086Z,15.90
2018-11-06T17:08:48.402Z,14.10
2018-11-06T17:11:16.638Z,14.40
2018-11-06T17:13:46.896Z,14.63
2018-11-06T17:16:18.661Z,17.90
2018-11-06T17:18:47.037Z,17.27
2018-11-06T17:21:15.293Z,17.73
2018-11-06T17:23:43.496Z,16.23
2018-11-06T17:26:13.680Z,16.07
2018-11-06T17:28:48.030Z,14.90
2018-11-06T17:31:16.277Z,15.03
2018-11-06T17:33:44.453Z,15.87
2018-11-06T17:36:12.712Z,16.17
2018-11-06T17:38:46.721Z,15.20
2018-11-06T17:41:15.085Z,17.20
2018-11-06T17:43:43.621Z,16.30
2018-11-06T17:46:17.758Z,16.70
2018-11-06T17:48:45.993Z,16.13
2018-11-06T17:51:16.302Z,16.33
2018-11-06T17:53:46.414Z,15.13
2018-11-06T17:56:15.465Z,16.13
2018-11-06T17:58:43.726Z,16.50
2018-11-06T18:01:16.293Z,15.83
2018-11-06T18:03:44.537Z,16.20
2018-11-06T18:06:12.732Z,15.03
2018-11-06T18:08:41.095Z,15.80
2018-11-06T18:11:10.229Z,15.03
2018-11-06T18:13:38.458Z,13.80
2018-11-06T18:16:06.809Z,14.93
2018-11-06T18:18:39.217Z,14.90
2018-11-06T18:21:07.460Z,15.00
2018-11-06T18:23:35.791Z,14.97
2018-11-06T18:26:04.018Z,16.65
2018-11-06T18:28:34.925Z,16.37
2018-11-06T18:31:03.181Z,16.43
2018-11-06T18:33:34.181Z,16.83
2018-11-06T18:36:05.185Z,16.87
2018-11-06T18:38:33.417Z,16.33
2018-11-06T18:41:01.649Z,16.53
2018-11-06T18:43:29.892Z,17.53
2018-11-06T18:46:02.741Z,16.77
2018-11-06T18:48:31.062Z,21.10
2018-11-06T18:50:59.290Z,18.23
2018-11-06T18:53:27.507Z,16.60
2018-11-06T18:55:56.000Z,18.97
2018-11-06T18:58:24.994Z,18.30
2018-11-06T19:03:31.745Z,17.70
2018-11-06T19:08:36.422Z,16.63
2018-11-06T19:11:04.718Z,17.40
2018-11-06T19:13:34.933Z,17.43
2018-11-06T19:16:03.306Z,16.30
2018-11-06T19:18:31.717Z,17.47
2018-11-06T19:21:00.407Z,17.07
2018-11-06T19:23:29.827Z,18.27
2018-11-06T19:25:58.248Z,18.90
2018-11-06T19:28:26.639Z,17.87
2018-11-06T19:30:54.936Z,18.03
2018-11-06T19:33:23.321Z,19.33
2018-11-06T19:35:51.649Z,17.13
2018-11-06T19:38:19.950Z,19.97
2018-11-06T19:40:48.330Z,17.83
2018-11-06T19:43:16.715Z,16.77
2018-11-06T19:45:46.028Z,17.07
2018-11-06T19:48:14.340Z,15.33
2018-11-06T19:50:42.676Z,16.23
2018-11-06T19:53:10.959Z,17.07
2018-11-06T19:55:40.215Z,16.37
2018-11-06T19:58:08.531Z,16.60
2018-11-06T20:00:37.957Z,16.27
2018-11-06T20:03:06.329Z,14.97
2018-11-06T20:05:34.740Z,15.97
2018-11-06T20:08:03.055Z,15.93
2018-11-06T20:10:31.354Z,16.00
2018-11-06T20:12:59.758Z,14.97
2018-11-06T20:15:28.201Z,16.23
2018-11-06T20:17:56.611Z,15.07
2018-11-06T20:20:26.127Z,15.73
2018-11-06T20:22:54.694Z,15.53
2018-11-06T20:25:23.175Z,15.33
2018-11-06T20:27:51.555Z,16.47
2018-11-06T20:30:24.149Z,15.53
2018-11-06T20:32:52.538Z,15.13
2018-11-06T20:35:21.973Z,15.57
2018-11-06T20:37:50.376Z,15.47
2018-11-06T20:40:21.139Z,16.67
2018-11-06T20:42:49.974Z,16.43
2018-11-06T20:45:19.025Z,15.77
2018-11-06T20:47:47.422Z,14.67
2018-11-06T20:50:19.852Z,16.03
2018-11-06T20:52:48.323Z,15.40
2018-11-06T20:55:17.252Z,17.27
2018-11-06T20:57:45.499Z,15.97
2018-11-06T21:00:19.855Z,16.10
2018-11-06T21:02:48.823Z,14.30
2018-11-06T21:05:17.345Z,14.17
2018-11-06T21:07:46.329Z,14.73
2018-11-06T21:10:15.759Z,14.67
2018-11-06T21:12:44.113Z,13.60
2018-11-06T21:15:12.991Z,13.20
2018-11-06T21:17:41.365Z,12.97
2018-11-06T21:20:10.554Z,12.87
2018-11-06T21:22:39.214Z,13.17
2018-11-06T21:25:08.182Z,13.77
2018-11-06T21:27:37.017Z,13.27
2018-11-06T21:30:07.916Z,13.57
2018-11-06T21:32:36.287Z,12.77
2018-11-06T21:35:08.479Z,11.87
2018-11-06T21:37:38.142Z,11.80
2018-11-06T21:40:14.694Z,12.03
2018-11-06T21:42:45.308Z,12.23
2018-11-06T21:45:15.083Z,11.70
2018-11-06T21:47:46.229Z,12.33
2018-11-06T21:50:15.373Z,12.63
2018-11-06T21:52:43.625Z,12.70
2018-11-06T21:55:13.162Z,13.47
2018-11-06T21:57:41.435Z,13.53
2018-11-06T22:00:12.378Z,12.77
2018-11-06T22:02:40.577Z,13.80
2018-11-06T22:05:10.376Z,12.60
2018-11-06T22:07:38.780Z,13.87
2018-11-06T22:10:08.687Z,12.93
2018-11-06T22:12:37.024Z,13.93
2018-11-06T22:15:06.042Z,12.93
2018-11-06T22:17:34.310Z,13.37
2018-11-06T22:20:02.548Z,12.13
2018-11-06T22:22:30.820Z,13.27
2018-11-06T22:24:59.114Z,12.10
2018-11-06T22:27:27.414Z,12.43
2018-11-06T22:29:55.602Z,14.00
2018-11-06T22:32:23.886Z,13.67
2018-11-06T22:34:52.153Z,13.93
2018-11-06T22:37:20.481Z,13.13
2018-11-06T22:39:48.670Z,13.33
2018-11-06T22:42:16.979Z,12.90
2018-11-06T22:44:45.238Z,14.10
2018-11-06T22:47:13.502Z,13.70
2018-11-06T22:49:41.767Z,13.93
2018-11-06T22:52:10.015Z,13.83
2018-11-06T22:54:38.282Z,13.27
2018-11-06T22:57:06.522Z,13.87
2018-11-06T22:59:34.822Z,13.90
2018-11-06T23:02:03.081Z,13.50
2018-11-06T23:04:31.349Z,13.30
2018-11-06T23:06:59.637Z,13.73
2018-11-06T23:09:27.826Z,15.80
2018-11-06T23:11:56.095Z,13.33
2018-11-06T23:14:24.333Z,13.47
2018-11-06T23:16:52.610Z,13.47
2018-11-06T23:19:20.841Z,12.93
2018-11-06T23:21:49.093Z,13.30
2018-11-06T23:24:17.317Z,14.70
2018-11-06T23:26:45.576Z,13.70
2018-11-06T23:29:13.821Z,15.33
2018-11-06T23:31:42.093Z,14.67
2018-11-06T23:34:10.366Z,14.90
2018-11-06T23:36:38.615Z,16.10
2018-11-06T23:39:07.609Z,17.10
2018-11-06T23:41:35.905Z,15.50
2018-11-06T23:44:04.283Z,17.13
2018-11-06T23:46:32.523Z,15.57
2018-11-06T23:49:00.846Z,16.57
2018-11-06T23:51:29.098Z,17.40
2018-11-06T23:53:57.367Z,18.27
2018-11-06T23:56:25.660Z,17.20
2018-11-06T23:58:53.854Z,17.17
